createdAt,value
2023-07-03T00:01:13.742Z,2.15
2023-07-03T00:04:05.802Z,1.80
2023-07-03T00:06:57.742Z,1.95
2023-07-03T00:09:43.306Z,2.13
2023-07-03T00:12:35.748Z,1.80
2023-07-03T00:15:26.728Z,2.15
2023-07-03T00:18:11.761Z,2.15
2023-07-03T00:21:04.738Z,2.03
2023-07-03T00:23:49.460Z,1.63
2023-07-03T00:26:40.740Z,1.73
2023-07-03T00:29:25.629Z,1.92
2023-07-03T00:32:16.760Z,1.73
2023-07-03T00:35:01.853Z,1.73
2023-07-03T00:37:52.759Z,1.98
2023-07-03T00:40:43.800Z,2.13
2023-07-03T00:43:48.743Z,2.17
2023-07-03T00:46:33.672Z,1.83
2023-07-03T00:49:27.867Z,1.98
2023-07-03T00:52:13.729Z,1.92
2023-07-03T00:55:05.755Z,2.07
2023-07-03T00:57:51.584Z,2.05
2023-07-03T01:00:52.739Z,1.88
2023-07-03T01:03:46.554Z,2.08
2023-07-03T01:06:47.746Z,1.80
2023-07-03T01:09:49.036Z,1.93
2023-07-03T01:12:45.757Z,1.45
2023-07-03T01:15:40.739Z,2.35
2023-07-03T01:18:26.503Z,2.13
2023-07-03T01:21:30.748Z,1.70
2023-07-03T01:24:28.244Z,1.87
2023-07-03T01:27:22.792Z,1.63
2023-07-03T01:30:11.989Z,1.77
2023-07-03T01:33:04.818Z,1.95
2023-07-03T01:35:52.060Z,1.70
2023-07-03T01:38:43.792Z,2.10
2023-07-03T01:41:36.815Z,1.75
2023-07-03T01:44:34.767Z,1.90
2023-07-03T01:47:21.323Z,2.00
2023-07-03T01:50:17.778Z,2.05
2023-07-03T01:53:11.462Z,1.97
2023-07-03T01:56:22.785Z,2.17
2023-07-03T01:59:16.763Z,1.85
2023-07-03T02:02:12.738Z,1.73
2023-07-03T02:05:11.761Z,2.13
2023-07-03T02:08:07.757Z,1.80
2023-07-03T02:10:54.452Z,2.03
2023-07-03T02:13:45.762Z,1.88
2023-07-03T02:16:30.812Z,2.28
2023-07-03T02:19:23.761Z,1.85
2023-07-03T02:22:08.751Z,1.87
2023-07-03T02:25:00.764Z,1.83
2023-07-03T02:27:46.060Z,1.65
2023-07-03T02:30:37.802Z,2.05
2023-07-03T02:33:22.759Z,1.98
2023-07-03T02:36:14.779Z,2.37
2023-07-03T02:38:59.965Z,1.90
2023-07-03T02:41:51.780Z,1.83
2023-07-03T02:44:37.015Z,2.30
2023-07-03T02:47:28.935Z,2.33
2023-07-03T02:50:14.131Z,2.47
2023-07-03T02:53:05.786Z,1.92
2023-07-03T02:55:57.787Z,1.92
2023-07-03T02:58:43.017Z,1.98
2023-07-03T03:01:35.792Z,2.00
2023-07-03T03:04:20.574Z,2.07
2023-07-03T03:07:11.795Z,2.08
2023-07-03T03:09:56.809Z,2.03
2023-07-03T03:12:47.764Z,1.88
2023-07-03T03:15:38.202Z,2.13
2023-07-03T03:18:29.785Z,2.07
2023-07-03T03:21:22.854Z,1.70
2023-07-03T03:24:07.844Z,1.75
2023-07-03T03:26:58.811Z,1.50
2023-07-03T03:29:49.789Z,2.00
2023-07-03T03:32:40.791Z,1.70
2023-07-03T03:35:25.580Z,1.90
2023-07-03T03:38:16.794Z,1.95
2023-07-03T03:41:10.863Z,1.52
2023-07-03T03:44:08.791Z,2.00
2023-07-03T03:47:00.808Z,1.43
2023-07-03T03:49:45.690Z,1.73
2023-07-03T03:52:36.815Z,1.55
2023-07-03T03:55:21.883Z,2.10
2023-07-03T03:58:13.791Z,1.85
2023-07-03T04:00:58.650Z,1.60
2023-07-03T04:03:49.817Z,1.88
2023-07-03T04:06:45.806Z,1.77
2023-07-03T04:09:30.762Z,1.63
2023-07-03T04:12:21.828Z,1.60
2023-07-03T04:15:07.829Z,1.83
2023-07-03T04:18:06.858Z,1.77
2023-07-03T04:21:06.117Z,1.90
2023-07-03T04:24:04.799Z,1.60
2023-07-03T04:26:49.692Z,1.70
2023-07-03T04:29:40.803Z,1.60
2023-07-03T04:32:26.220Z,1.65
2023-07-03T04:35:17.810Z,1.60
2023-07-03T04:38:03.124Z,2.00
2023-07-03T04:40:54.803Z,1.83
2023-07-03T04:43:49.129Z,2.00
2023-07-03T04:46:40.878Z,2.10
2023-07-03T04:49:33.805Z,1.95
2023-07-03T04:52:20.706Z,2.22
2023-07-03T04:55:14.814Z,2.20
2023-07-03T04:58:06.820Z,1.57
2023-07-03T05:00:58.838Z,2.70
2023-07-03T05:03:43.744Z,2.00
2023-07-03T05:06:35.816Z,2.00
2023-07-03T05:09:29.877Z,2.20
2023-07-03T05:12:21.828Z,1.67
2023-07-03T05:15:10.510Z,1.80
2023-07-03T05:18:02.951Z,3.08
2023-07-03T05:20:49.991Z,2.05
2023-07-03T05:23:41.854Z,2.05
2023-07-03T05:26:26.689Z,1.83
2023-07-03T05:29:17.986Z,2.30
2023-07-03T05:32:03.705Z,2.47
2023-07-03T05:34:54.827Z,2.15
2023-07-03T05:37:46.855Z,2.00
2023-07-03T05:40:51.905Z,1.93
2023-07-03T05:43:42.853Z,1.90
2023-07-03T05:46:34.881Z,2.10
2023-07-03T05:49:26.833Z,2.42
2023-07-03T05:52:18.839Z,2.72
2023-07-03T05:55:12.826Z,2.23
2023-07-03T05:58:04.844Z,2.08
2023-07-03T06:00:50.223Z,2.63
2023-07-03T06:03:41.880Z,2.20
2023-07-03T06:06:27.128Z,2.08
2023-07-03T06:09:18.856Z,2.10
2023-07-03T06:12:05.005Z,2.40
2023-07-03T06:14:56.830Z,2.00
2023-07-03T06:17:43.287Z,2.20
2023-07-03T06:20:34.833Z,2.70
2023-07-03T06:23:25.869Z,2.50
2023-07-03T06:26:18.877Z,2.33
2023-07-03T06:29:03.888Z,1.90
2023-07-03T06:31:56.850Z,2.08
2023-07-03T06:34:47.882Z,1.83
2023-07-03T06:37:32.890Z,1.90
2023-07-03T06:40:25.843Z,2.08
2023-07-03T06:43:17.038Z,2.10
2023-07-03T06:46:08.946Z,1.92
2023-07-03T06:48:56.409Z,2.30
2023-07-03T06:51:48.896Z,2.07
2023-07-03T06:54:33.951Z,1.85
2023-07-03T06:57:24.862Z,2.70
2023-07-03T07:00:10.844Z,2.92
2023-07-03T07:03:02.970Z,2.25
2023-07-03T07:05:48.533Z,2.07
2023-07-03T07:08:39.872Z,2.10
2023-07-03T07:11:30.073Z,2.25
2023-07-03T07:14:21.874Z,2.20
2023-07-03T07:17:07.030Z,2.50
2023-07-03T07:19:59.207Z,1.93
2023-07-03T07:22:44.311Z,2.30
2023-07-03T07:25:35.857Z,2.00
2023-07-03T07:28:27.883Z,2.20
2023-07-03T07:31:22.366Z,2.45
2023-07-03T07:34:15.887Z,2.37
2023-07-03T07:37:07.877Z,2.30
2023-07-03T07:39:58.861Z,2.05
2023-07-03T07:42:49.908Z,2.63
2023-07-03T07:45:40.912Z,2.20
2023-07-03T07:48:28.822Z,3.00
2023-07-03T07:51:21.867Z,2.67
2023-07-03T07:54:06.914Z,3.15
2023-07-03T07:56:58.930Z,2.17
2023-07-03T07:59:43.740Z,2.47
2023-07-03T08:02:35.032Z,2.70
2023-07-03T08:05:21.107Z,2.20
2023-07-03T08:08:12.909Z,2.25
2023-07-03T08:11:01.105Z,2.03
2023-07-03T08:13:52.939Z,2.03
2023-07-03T08:16:38.103Z,1.50
2023-07-03T08:19:29.901Z,2.20
2023-07-03T08:22:21.891Z,2.05
2023-07-03T08:25:07.783Z,1.90
2023-07-03T08:27:58.980Z,1.85
2023-07-03T08:30:43.978Z,2.13
2023-07-03T08:33:36.000Z,1.83
2023-07-03T08:39:15.912Z,2.03
2023-07-03T08:42:27.922Z,2.00
2023-07-03T08:45:22.882Z,1.50
2023-07-03T08:48:13.474Z,1.88
2023-07-03T08:51:09.903Z,2.15
2023-07-03T08:54:05.832Z,2.10
2023-07-03T08:56:57.890Z,1.92
2023-07-03T08:59:43.071Z,2.40
2023-07-03T09:02:45.033Z,2.22
2023-07-03T09:05:59.495Z,2.78
2023-07-03T09:09:04.943Z,2.58
2023-07-03T09:12:26.925Z,2.70
2023-07-03T09:15:32.914Z,2.80
2023-07-03T09:18:21.529Z,2.03
2023-07-03T09:21:13.928Z,2.20
2023-07-03T09:24:45.924Z,2.30
2023-07-03T09:27:31.112Z,2.35
2023-07-03T09:30:22.914Z,2.30
2023-07-03T09:33:08.091Z,2.08
2023-07-03T09:36:00.914Z,2.47
2023-07-03T09:38:46.081Z,2.70
2023-07-03T09:41:41.955Z,2.42
2023-07-03T09:44:33.167Z,2.00
2023-07-03T09:47:30.096Z,2.50
2023-07-03T09:50:16.594Z,1.92
2023-07-03T09:53:10.294Z,2.15
2023-07-03T09:55:58.799Z,1.95
2023-07-03T09:58:55.928Z,2.03
2023-07-03T10:07:41.018Z,1.77
2023-07-03T10:13:38.034Z,1.97
2023-07-03T10:16:26.521Z,2.28
2023-07-03T10:19:18.004Z,2.33
2023-07-03T10:22:05.877Z,2.25
2023-07-03T10:24:57.964Z,1.90
2023-07-03T10:27:43.296Z,2.07
2023-07-03T10:30:39.954Z,2.45
2023-07-03T10:33:43.002Z,2.13
2023-07-03T10:36:38.964Z,1.85
2023-07-03T10:39:48.943Z,2.00
2023-07-03T10:42:53.972Z,1.93
2023-07-03T10:45:53.151Z,2.10
2023-07-03T10:48:44.948Z,2.50
2023-07-03T10:51:48.008Z,2.25
2023-07-03T10:54:44.938Z,2.20
2023-07-03T10:57:55.962Z,1.80
2023-07-03T11:00:55.001Z,2.30
2023-07-03T11:04:22.713Z,1.77
2023-07-03T11:07:41.988Z,2.20
2023-07-03T11:10:49.189Z,2.20
2023-07-03T11:13:49.145Z,2.03
2023-07-03T11:16:45.652Z,2.50
2023-07-03T11:28:45.074Z,2.30
2023-07-03T11:31:38.013Z,1.80
2023-07-03T11:41:06.036Z,1.90
2023-07-03T11:44:03.984Z,1.88
2023-07-03T11:46:59.989Z,1.50
2023-07-03T11:49:49.480Z,1.63
2023-07-03T11:52:43.978Z,2.40
2023-07-03T11:55:43.997Z,1.20
2023-07-03T11:58:37.997Z,1.75
2023-07-03T12:01:33.130Z,1.80
2023-07-03T12:04:51.021Z,2.25
2023-07-03T12:07:35.982Z,2.03
2023-07-03T12:10:27.007Z,1.90
2023-07-03T12:13:38.238Z,1.95
2023-07-03T12:16:40.009Z,1.73
2023-07-03T12:19:31.522Z,2.00
2023-07-03T12:22:27.024Z,1.95
2023-07-03T12:25:32.026Z,2.15
2023-07-03T12:28:25.000Z,2.20
2023-07-03T12:31:27.047Z,1.63
2023-07-03T12:34:12.194Z,1.75
2023-07-03T12:37:11.008Z,1.95
2023-07-03T12:39:55.910Z,2.22
2023-07-03T12:43:00.013Z,2.25
2023-07-03T12:45:51.932Z,2.07
2023-07-03T12:48:44.028Z,2.70
2023-07-03T12:51:28.948Z,2.17
2023-07-03T12:54:20.061Z,2.45
2023-07-03T12:57:07.086Z,2.20
2023-07-03T13:00:00.009Z,2.20
2023-07-03T13:02:52.046Z,2.30
2023-07-03T13:05:37.334Z,2.40
2023-07-03T13:08:29.029Z,2.42
2023-07-03T13:11:21.024Z,2.28
2023-07-03T13:14:18.016Z,2.33
2023-07-03T13:17:04.563Z,2.72
2023-07-03T13:19:56.016Z,2.63
2023-07-03T13:23:12.012Z,2.55
2023-07-03T13:25:58.150Z,2.00
2023-07-03T13:29:03.039Z,2.50
2023-07-03T13:31:52.803Z,2.67
2023-07-03T13:35:08.008Z,2.38
2023-07-03T13:37:53.138Z,2.47
2023-07-03T13:40:45.139Z,2.80
2023-07-03T13:43:46.123Z,2.47
2023-07-03T13:46:31.112Z,2.50
2023-07-03T13:49:24.022Z,2.47
2023-07-03T13:52:09.213Z,2.30
2023-07-03T13:55:01.025Z,2.72
2023-07-03T13:57:45.881Z,2.27
2023-07-03T14:00:37.046Z,2.50
2023-07-03T14:03:28.106Z,2.80
2023-07-03T14:06:13.919Z,2.85
2023-07-03T14:09:06.045Z,2.70
2023-07-03T14:11:57.070Z,2.40
2023-07-03T14:14:42.048Z,2.53
2023-07-03T14:17:33.129Z,3.28
2023-07-03T14:20:18.347Z,2.85
2023-07-03T14:23:11.034Z,3.05
2023-07-03T14:25:59.944Z,3.07
2023-07-03T14:28:53.032Z,2.70
2023-07-03T14:31:45.091Z,3.05
2023-07-03T14:34:29.905Z,3.08
2023-07-03T14:37:21.079Z,3.10
2023-07-03T14:40:06.622Z,2.70
2023-07-03T14:43:05.061Z,2.50
2023-07-03T14:45:50.261Z,2.72
2023-07-03T14:48:42.343Z,2.70
2023-07-03T14:51:34.074Z,3.10
2023-07-03T14:54:25.079Z,3.60
2023-07-03T14:57:16.063Z,3.45
2023-07-03T15:00:01.026Z,2.70
2023-07-03T15:02:56.251Z,3.30
2023-07-03T15:05:41.613Z,3.55
2023-07-03T15:08:33.054Z,3.23
2023-07-03T15:11:18.988Z,3.50
2023-07-03T15:14:14.071Z,3.80
2023-07-03T15:16:59.280Z,3.50
2023-07-03T15:19:51.056Z,3.03
2023-07-03T15:22:36.369Z,3.43
2023-07-03T15:25:28.075Z,3.13
2023-07-03T15:28:20.065Z,3.97
2023-07-03T15:31:12.115Z,3.50
2023-07-03T15:33:57.061Z,3.30
2023-07-03T15:36:49.068Z,3.30
2023-07-03T15:39:34.005Z,3.90
2023-07-03T15:42:25.083Z,3.60
2023-07-03T15:45:17.280Z,3.38
2023-07-03T15:48:09.086Z,3.70
2023-07-03T15:50:58.138Z,4.13
2023-07-03T15:53:50.099Z,3.17
2023-07-03T15:56:42.085Z,4.38
2023-07-03T15:59:27.505Z,4.55
2023-07-03T16:02:19.103Z,4.57
2023-07-03T16:05:11.096Z,4.07
2023-07-03T16:08:02.101Z,4.38
2023-07-03T16:10:47.104Z,4.35
2023-07-03T16:13:40.114Z,4.85
2023-07-03T16:16:26.448Z,4.50
2023-07-03T16:19:21.857Z,3.60
2023-07-03T16:22:07.956Z,3.83
2023-07-03T16:24:59.088Z,4.20
2023-07-03T16:27:50.109Z,3.55
2023-07-03T16:30:41.154Z,4.28
2023-07-03T16:33:26.685Z,4.00
2023-07-03T16:36:24.106Z,3.97
2023-07-03T16:39:09.962Z,4.18
2023-07-03T16:42:01.109Z,3.90
2023-07-03T16:44:46.677Z,4.05
2023-07-03T16:47:38.115Z,4.07
2023-07-03T16:50:22.954Z,3.70
2023-07-03T16:53:15.286Z,3.97
2023-07-03T16:56:11.402Z,3.80
2023-07-03T16:59:05.093Z,3.72
2023-07-03T17:01:49.861Z,4.30
2023-07-03T17:04:41.130Z,4.13
2023-07-03T17:07:26.408Z,3.92
2023-07-03T17:10:18.107Z,3.88
2023-07-03T17:13:05.061Z,3.90
2023-07-03T17:15:57.172Z,4.17
2023-07-03T17:18:42.036Z,3.88
2023-07-03T17:21:34.253Z,4.63
2023-07-03T17:24:19.435Z,4.03
2023-07-03T17:27:11.384Z,4.22
2023-07-03T17:29:56.401Z,3.97
2023-07-03T17:32:49.166Z,3.85
2023-07-03T17:35:42.118Z,3.88
2023-07-03T17:38:34.111Z,4.07
2023-07-03T17:41:26.128Z,3.80
2023-07-03T17:44:17.754Z,3.83
2023-07-03T17:47:09.133Z,3.85
2023-07-03T17:50:00.164Z,3.50
2023-07-03T17:52:46.352Z,3.65
2023-07-03T17:55:39.136Z,3.47
2023-07-03T17:58:24.191Z,3.30
2023-07-03T18:01:16.152Z,3.25
2023-07-03T18:04:01.556Z,3.65
2023-07-03T18:06:53.129Z,3.40
2023-07-03T18:09:38.150Z,3.30
2023-07-03T18:12:29.137Z,4.30
2023-07-03T18:15:14.845Z,3.28
2023-07-03T18:18:06.132Z,3.38
2023-07-03T18:20:50.937Z,3.33
2023-07-03T18:23:42.135Z,3.13
2023-07-03T18:26:26.779Z,3.63
2023-07-03T18:29:18.140Z,3.50
2023-07-03T18:32:03.469Z,3.63
2023-07-03T18:34:55.143Z,3.75
2023-07-03T18:37:39.862Z,3.88
2023-07-03T18:40:31.161Z,3.37
2023-07-03T18:43:22.285Z,3.15
2023-07-03T18:46:22.226Z,3.63
2023-07-03T18:49:06.944Z,3.20
2023-07-03T18:51:59.164Z,3.67
2023-07-03T18:54:44.772Z,3.50
2023-07-03T18:57:36.218Z,3.25
2023-07-03T19:00:21.911Z,4.10
2023-07-03T19:03:13.158Z,3.78
2023-07-03T19:06:06.162Z,3.58
2023-07-03T19:08:58.160Z,3.27
2023-07-03T19:11:51.181Z,3.30
2023-07-03T19:14:43.163Z,3.58
2023-07-03T19:17:30.242Z,3.30
2023-07-03T19:20:25.161Z,3.63
2023-07-03T19:23:10.024Z,3.30
2023-07-03T19:26:03.205Z,3.40
2023-07-03T19:28:57.154Z,3.40
2023-07-03T19:31:49.207Z,3.25
2023-07-03T19:34:36.296Z,3.03
2023-07-03T19:37:28.169Z,3.57
2023-07-03T19:40:19.312Z,3.40
2023-07-03T19:43:11.180Z,3.55
2023-07-03T19:46:10.181Z,3.40
2023-07-03T19:48:58.263Z,3.30
2023-07-03T19:51:50.190Z,3.20
2023-07-03T19:54:35.220Z,3.22
2023-07-03T19:57:28.186Z,3.30
2023-07-03T20:00:14.063Z,3.70
2023-07-03T20:03:06.243Z,3.38
2023-07-03T20:05:58.165Z,2.83
2023-07-03T20:08:43.190Z,3.70
2023-07-03T20:11:34.199Z,3.47
2023-07-03T20:14:19.818Z,3.20
2023-07-03T20:17:11.216Z,3.45
2023-07-03T20:19:56.197Z,3.20
2023-07-03T20:22:50.192Z,3.22
2023-07-03T20:25:35.045Z,2.60
2023-07-03T20:28:26.179Z,2.97
2023-07-03T20:31:20.222Z,3.00
2023-07-03T20:34:05.377Z,3.33
2023-07-03T20:36:57.200Z,2.65
2023-07-03T20:39:41.909Z,2.97
2023-07-03T20:42:34.203Z,3.92
2023-07-03T20:45:19.223Z,3.10
2023-07-03T20:48:11.206Z,2.93
2023-07-03T20:50:59.529Z,3.78
2023-07-03T20:54:01.174Z,2.53
2023-07-03T20:56:47.157Z,2.38
2023-07-03T20:59:41.191Z,2.72
2023-07-03T21:02:33.230Z,3.00
2023-07-03T21:05:18.463Z,2.70
2023-07-03T21:08:11.782Z,2.70
2023-07-03T21:10:58.575Z,3.13
2023-07-03T21:13:51.347Z,3.10
2023-07-03T21:16:37.100Z,2.53
2023-07-03T21:19:28.185Z,2.47
2023-07-03T21:22:12.850Z,2.42
2023-07-03T21:25:04.567Z,2.00
2023-07-03T21:27:56.219Z,2.20
2023-07-03T21:30:44.072Z,2.23
2023-07-03T21:33:39.228Z,2.40
2023-07-03T21:36:26.412Z,2.22
2023-07-03T21:39:18.193Z,2.25
2023-07-03T21:42:03.378Z,1.88
2023-07-03T21:45:01.217Z,2.00
2023-07-03T21:47:49.503Z,2.17
2023-07-03T21:50:41.225Z,2.00
2023-07-03T21:53:27.051Z,1.73
2023-07-03T21:56:21.216Z,1.90
2023-07-03T21:59:06.416Z,1.70
2023-07-03T22:01:58.306Z,2.10
2023-07-03T22:04:43.727Z,1.50
2023-07-03T22:07:35.236Z,1.75
2023-07-03T22:10:20.046Z,2.42
2023-07-03T22:13:12.244Z,1.70
2023-07-03T22:15:57.114Z,2.03
2023-07-03T22:18:48.220Z,2.10
2023-07-03T22:21:33.113Z,2.03
2023-07-03T22:24:24.221Z,2.28
2023-07-03T22:27:09.382Z,1.87
2023-07-03T22:30:01.231Z,1.70
2023-07-03T22:32:52.289Z,1.67
2023-07-03T22:35:36.908Z,1.85
2023-07-03T22:38:28.211Z,1.88
2023-07-03T22:41:20.225Z,1.93
2023-07-03T22:44:19.215Z,2.15
2023-07-03T22:47:10.602Z,1.88
2023-07-03T22:50:02.254Z,1.70
2023-07-03T22:52:57.239Z,1.75
2023-07-03T22:55:42.391Z,2.10
2023-07-03T22:58:34.283Z,1.92
2023-07-03T23:01:19.554Z,2.33
2023-07-03T23:04:12.253Z,1.80
2023-07-03T23:06:57.640Z,2.13
2023-07-03T23:09:49.240Z,2.20
2023-07-03T23:12:34.633Z,2.08
2023-07-03T23:15:26.238Z,2.40
2023-07-03T23:18:11.006Z,1.63
2023-07-03T23:21:08.357Z,1.70
2023-07-03T23:24:03.234Z,1.63
2023-07-03T23:26:56.260Z,1.70
2023-07-03T23:29:41.611Z,2.00
2023-07-03T23:32:33.309Z,1.90
2023-07-03T23:35:18.334Z,1.70
2023-07-03T23:38:10.258Z,2.07
2023-07-03T23:40:55.449Z,1.98
2023-07-03T23:43:47.265Z,1.90
2023-07-03T23:46:38.662Z,1.80
2023-07-03T23:49:31.262Z,1.83
2023-07-03T23:52:16.542Z,1.70
2023-07-03T23:55:08.253Z,1.52
2023-07-03T23:57:59.261Z,1.75
